Metar Flugplatz Niederstetten

ETHN 150720Z 10006KT 9999 FEW060 BKN130 BKN200 03/01 Q0995 BLU BLU



Temperatur Niederstetten
3 Grad Celsius

QNH Niederstetten
995
==============================================================

TAF Niederstetten:

TAF ETHN 291027Z 2911/3002 24010KT 9999 NSW FEW240 TEMPO 2911/2916 26012G22KT 9999 NSW SCT035 BKN240



Alle Angaben ohne Gewähr